createdAt,value
2023-05-19T00:00:01.102Z,1025.65
2023-05-19T00:01:01.082Z,1025.64
2023-05-19T00:02:01.557Z,1025.69
2023-05-19T00:03:02.145Z,1025.67
2023-05-19T00:04:01.593Z,1025.66
2023-05-19T00:05:01.927Z,1025.69
2023-05-19T00:06:03.656Z,1025.67
2023-05-19T00:07:00.728Z,1025.69
2023-05-19T00:08:00.447Z,1025.69
2023-05-19T00:09:00.147Z,1025.67
2023-05-19T00:10:00.152Z,1025.67
2023-05-19T00:11:05.564Z,1025.65
2023-05-19T00:12:01.454Z,1025.63
2023-05-19T00:13:02.268Z,1025.6
2023-05-19T00:14:01.091Z,1025.61
2023-05-19T00:15:01.082Z,1025.67
2023-05-19T00:16:09.542Z,1025.67
2023-05-19T00:17:01.511Z,1025.61
2023-05-19T00:18:01.184Z,1025.58
2023-05-19T00:19:01.160Z,1025.6
2023-05-19T00:20:01.979Z,1025.6
2023-05-19T00:21:12.637Z,1025.55
2023-05-19T00:22:01.034Z,1025.56
2023-05-19T00:23:01.028Z,1025.51
2023-05-19T00:24:01.049Z,1025.51
2023-05-19T00:25:01.129Z,1025.55
2023-05-19T00:26:15.264Z,1025.53
2023-05-19T00:27:01.751Z,1025.54
2023-05-19T00:28:01.065Z,1025.52
2023-05-19T00:29:01.441Z,1025.51
2023-05-19T00:30:01.477Z,1025.59
2023-05-19T00:31:17.242Z,1025.55
2023-05-19T00:32:01.995Z,1025.55
2023-05-19T00:33:02.648Z,1025.56
2023-05-19T00:34:01.089Z,1025.54
2023-05-19T00:35:01.115Z,1025.52
2023-05-19T00:36:01.113Z,1025.55
2023-05-19T00:37:01.560Z,1025.53
2023-05-19T00:38:01.736Z,1025.57
2023-05-19T00:39:01.232Z,1025.57
2023-05-19T00:40:01.900Z,1025.57
2023-05-19T00:41:02.305Z,1025.61
2023-05-19T00:42:01.044Z,1025.59
2023-05-19T00:43:01.059Z,1025.61
2023-05-19T00:44:01.487Z,1025.62
2023-05-19T00:45:01.052Z,1025.6
2023-05-19T00:46:01.065Z,1025.61
2023-05-19T00:47:01.206Z,1025.65
2023-05-19T00:48:01.154Z,1025.63
2023-05-19T00:49:01.101Z,1025.65
2023-05-19T00:50:01.509Z,1025.66
2023-05-19T00:51:01.213Z,1025.67
2023-05-19T00:52:01.115Z,1025.63
2023-05-19T00:53:01.120Z,1025.63
2023-05-19T00:54:01.132Z,1025.69
2023-05-19T00:55:01.033Z,1025.7
2023-05-19T00:56:01.059Z,1025.69
2023-05-19T00:57:01.059Z,1025.73
2023-05-19T00:58:01.059Z,1025.69
2023-05-19T00:59:01.062Z,1025.72
2023-05-19T01:00:01.069Z,1025.65
2023-05-19T01:01:01.297Z,1025.74
2023-05-19T01:02:01.616Z,1025.65
2023-05-19T01:03:02.421Z,1025.71
2023-05-19T01:04:01.953Z,1025.68
2023-05-19T01:05:01.102Z,1025.7
2023-05-19T01:06:01.099Z,1025.72
2023-05-19T01:07:01.122Z,1025.72
2023-05-19T01:08:01.139Z,1025.69
2023-05-19T01:09:01.153Z,1025.7
2023-05-19T01:10:01.436Z,1025.73
2023-05-19T01:11:01.169Z,1025.73
2023-05-19T01:12:01.047Z,1025.7
2023-05-19T01:13:01.044Z,1025.71
2023-05-19T01:14:01.469Z,1025.67
2023-05-19T01:15:01.059Z,1025.66
2023-05-19T01:16:00.921Z,1025.64
2023-05-19T01:17:01.220Z,1025.69
2023-05-19T01:18:01.309Z,1025.66
2023-05-19T01:19:02.256Z,1025.65
2023-05-19T01:20:01.200Z,1025.68
2023-05-19T01:21:02.222Z,1025.67
2023-05-19T01:22:01.196Z,1025.65
2023-05-19T01:23:01.200Z,1025.64
2023-05-19T01:24:01.109Z,1025.65
2023-05-19T01:25:00.153Z,1025.64
2023-05-19T01:26:00.102Z,1025.65
2023-05-19T01:26:59.795Z,1025.64
2023-05-19T01:28:02.097Z,1025.66
2023-05-19T01:29:02.265Z,1025.67
2023-05-19T01:30:03.016Z,1025.61
2023-05-19T01:31:01.195Z,1025.65
2023-05-19T01:32:01.168Z,1025.64
2023-05-19T01:33:04.314Z,1025.64
2023-05-19T01:34:01.102Z,1025.63
2023-05-19T01:35:01.082Z,1025.6
2023-05-19T01:36:01.094Z,1025.62
2023-05-19T01:37:01.474Z,1025.6
2023-05-19T01:38:01.096Z,1025.62
2023-05-19T01:39:01.111Z,1025.61
2023-05-19T01:40:01.443Z,1025.57
2023-05-19T01:41:01.293Z,1025.6
2023-05-19T01:42:01.156Z,1025.56
2023-05-19T01:43:01.134Z,1025.61
2023-05-19T01:44:01.571Z,1025.6
2023-05-19T01:45:01.269Z,1025.58
2023-05-19T01:46:01.315Z,1025.57
2023-05-19T01:47:01.783Z,1025.6
2023-05-19T01:48:02.026Z,1025.58
2023-05-19T01:49:01.743Z,1025.59
2023-05-19T01:50:01.083Z,1025.62
2023-05-19T01:51:01.113Z,1025.61
2023-05-19T01:52:04.616Z,1025.61
2023-05-19T01:53:01.096Z,1025.55
2023-05-19T01:54:01.102Z,1025.59
2023-05-19T01:55:01.223Z,1025.54
2023-05-19T01:56:01.517Z,1025.59
2023-05-19T01:57:06.777Z,1025.6
2023-05-19T01:58:01.026Z,1025.59
2023-05-19T01:59:01.047Z,1025.56
2023-05-19T02:00:01.056Z,1025.6
2023-05-19T02:01:01.115Z,1025.61
2023-05-19T02:02:09.383Z,1025.6
2023-05-19T02:03:02.665Z,1025.59
2023-05-19T02:04:01.220Z,1025.62
2023-05-19T02:05:02.068Z,1025.61
2023-05-19T02:06:01.394Z,1025.63
2023-05-19T02:07:13.040Z,1025.57
2023-05-19T02:08:02.758Z,1025.62
2023-05-19T02:09:00.734Z,1025.64
2023-05-19T02:10:00.401Z,1025.68
2023-05-19T02:10:59.987Z,1025.64
2023-05-19T02:12:14.299Z,1025.59
2023-05-19T02:13:02.046Z,1025.55
2023-05-19T02:14:01.074Z,1025.57
2023-05-19T02:15:01.377Z,1025.53
2023-05-19T02:16:01.107Z,1025.56
2023-05-19T02:17:01.051Z,1025.66
2023-05-19T02:18:01.105Z,1025.67
2023-05-19T02:19:01.158Z,1025.63
2023-05-19T02:20:00.742Z,1025.54
2023-05-19T02:21:00.453Z,1025.59
2023-05-19T02:22:00.059Z,1025.56
2023-05-19T02:22:59.762Z,1025.64
2023-05-19T02:24:01.313Z,1025.61
2023-05-19T02:25:03.004Z,1025.59
2023-05-19T02:26:01.118Z,1025.6
2023-05-19T02:27:01.177Z,1025.62
2023-05-19T02:28:00.842Z,1025.63
2023-05-19T02:29:00.650Z,1025.61
2023-05-19T02:30:00.353Z,1025.61
2023-05-19T02:31:00.002Z,1025.6
2023-05-19T02:31:59.650Z,1025.52
2023-05-19T02:33:01.924Z,1025.59
2023-05-19T02:34:01.101Z,1025.53
2023-05-19T02:35:01.012Z,1025.49
2023-05-19T02:36:01.053Z,1025.51
2023-05-19T02:37:01.087Z,1025.54
2023-05-19T02:38:01.480Z,1025.52
2023-05-19T02:39:01.096Z,1025.58
2023-05-19T02:40:01.171Z,1025.52
2023-05-19T02:41:01.135Z,1025.58
2023-05-19T02:42:01.126Z,1025.53
2023-05-19T02:43:01.109Z,1025.51
2023-05-19T02:44:00.990Z,1025.57
2023-05-19T02:45:01.503Z,1025.57
2023-05-19T02:46:02.101Z,1025.55
2023-05-19T02:47:01.040Z,1025.59
2023-05-19T02:48:00.795Z,1025.6
2023-05-19T02:49:00.631Z,1025.61
2023-05-19T02:50:00.256Z,1025.59
2023-05-19T02:50:59.862Z,1025.58
2023-05-19T02:52:01.753Z,1025.57
2023-05-19T02:53:01.511Z,1025.59
2023-05-19T02:54:02.897Z,1025.6
2023-05-19T02:55:01.081Z,1025.6
2023-05-19T02:56:01.115Z,1025.57
2023-05-19T02:57:01.018Z,1025.52
2023-05-19T02:58:01.092Z,1025.52
2023-05-19T02:59:01.103Z,1025.5
2023-05-19T03:00:01.142Z,1025.52
2023-05-19T03:01:01.096Z,1025.54
2023-05-19T03:02:01.220Z,1025.56
2023-05-19T03:03:02.465Z,1025.54
2023-05-19T03:04:02.410Z,1025.54
2023-05-19T03:05:01.854Z,1025.57
2023-05-19T03:06:01.042Z,1025.51
2023-05-19T03:07:01.055Z,1025.5
2023-05-19T03:08:00.762Z,1025.49
2023-05-19T03:09:01.185Z,1025.54
2023-05-19T03:10:01.091Z,1025.45
2023-05-19T03:11:01.110Z,1025.51
2023-05-19T03:12:01.420Z,1025.5
2023-05-19T03:13:01.092Z,1025.51
2023-05-19T03:14:01.547Z,1025.52
2023-05-19T03:15:00.879Z,1025.52
2023-05-19T03:16:01.166Z,1025.55
2023-05-19T03:17:01.178Z,1025.56
2023-05-19T03:18:01.096Z,1025.55
2023-05-19T03:19:01.060Z,1025.57
2023-05-19T03:20:01.110Z,1025.64
2023-05-19T03:21:01.427Z,1025.61
2023-05-19T03:22:01.166Z,1025.64
2023-05-19T03:23:01.049Z,1025.63
2023-05-19T03:24:01.068Z,1025.65
2023-05-19T03:25:01.018Z,1025.66
2023-05-19T03:26:01.064Z,1025.67
2023-05-19T03:27:01.089Z,1025.64
2023-05-19T03:28:00.800Z,1025.67
2023-05-19T03:29:00.381Z,1025.66
2023-05-19T03:30:00.106Z,1025.68
2023-05-19T03:30:59.933Z,1025.68
2023-05-19T03:32:00.076Z,1025.62
2023-05-19T03:33:01.193Z,1025.69
2023-05-19T03:34:02.096Z,1025.7
2023-05-19T03:35:01.432Z,1025.66
2023-05-19T03:36:01.151Z,1025.6
2023-05-19T03:37:01.922Z,1025.61
2023-05-19T03:38:04.639Z,1025.62
2023-05-19T03:39:01.068Z,1025.59
2023-05-19T03:40:01.088Z,1025.6
2023-05-19T03:41:01.083Z,1025.63
2023-05-19T03:42:01.136Z,1025.63
2023-05-19T03:43:07.007Z,1025.63
2023-05-19T03:44:01.104Z,1025.65
2023-05-19T03:45:01.107Z,1025.68
2023-05-19T03:46:01.150Z,1025.66
2023-05-19T03:47:01.125Z,1025.64
2023-05-19T03:48:10.481Z,1025.66
2023-05-19T03:49:01.501Z,1025.63
2023-05-19T03:50:01.186Z,1025.64
2023-05-19T03:51:01.068Z,1025.72
2023-05-19T03:52:01.053Z,1025.73
2023-05-19T03:53:14.303Z,1025.74
2023-05-19T03:54:02.310Z,1025.73
2023-05-19T03:55:01.910Z,1025.78
2023-05-19T03:56:01.981Z,1025.82
2023-05-19T03:57:01.451Z,1025.8
2023-05-19T03:58:17.158Z,1025.82
2023-05-19T03:59:02.200Z,1025.8
2023-05-19T04:00:01.052Z,1025.82
2023-05-19T04:01:01.518Z,1025.81
2023-05-19T04:02:01.172Z,1025.8
2023-05-19T04:03:01.264Z,1025.8
2023-05-19T04:04:01.177Z,1025.8
2023-05-19T04:05:01.389Z,1025.83
2023-05-19T04:06:01.447Z,1025.82
2023-05-19T04:07:01.430Z,1025.82
2023-05-19T04:08:01.446Z,1025.83
2023-05-19T04:09:02.969Z,1025.82
2023-05-19T04:10:01.085Z,1025.81
2023-05-19T04:11:01.073Z,1025.78
2023-05-19T04:12:01.039Z,1025.8
2023-05-19T04:13:01.093Z,1025.75
2023-05-19T04:14:01.792Z,1025.81
2023-05-19T04:15:01.049Z,1025.83
2023-05-19T04:16:01.126Z,1025.83
2023-05-19T04:17:01.101Z,1025.8
2023-05-19T04:18:01.145Z,1025.86
2023-05-19T04:19:01.204Z,1025.82
2023-05-19T04:20:01.753Z,1025.8
2023-05-19T04:21:01.163Z,1025.82
2023-05-19T04:22:01.038Z,1025.83
2023-05-19T04:23:01.040Z,1025.8
2023-05-19T04:24:01.240Z,1025.85
2023-05-19T04:25:00.779Z,1025.84
2023-05-19T04:26:00.449Z,1025.82
2023-05-19T04:27:00.030Z,1025.82
2023-05-19T04:27:59.623Z,1025.83
2023-05-19T04:29:01.645Z,1025.84
2023-05-19T04:30:01.967Z,1025.9
2023-05-19T04:31:01.445Z,1025.83
2023-05-19T04:32:01.210Z,1025.86
2023-05-19T04:33:00.941Z,1025.82
2023-05-19T04:34:00.713Z,1025.8
2023-05-19T04:35:00.428Z,1025.83
2023-05-19T04:36:00.109Z,1025.82
2023-05-19T04:37:00.079Z,1025.84
2023-05-19T04:37:59.809Z,1025.86
2023-05-19T04:39:01.488Z,1025.86
2023-05-19T04:40:02.072Z,1025.87
2023-05-19T04:41:01.115Z,1025.89
2023-05-19T04:42:01.059Z,1025.86
2023-05-19T04:43:01.090Z,1025.86
2023-05-19T04:44:01.098Z,1025.85
2023-05-19T04:45:01.134Z,1025.87
2023-05-19T04:46:01.170Z,1025.87
2023-05-19T04:47:01.243Z,1025.87
2023-05-19T04:48:01.237Z,1025.88
2023-05-19T04:49:00.985Z,1025.91
2023-05-19T04:50:00.851Z,1025.93
2023-05-19T04:51:01.127Z,1025.85
2023-05-19T04:52:01.446Z,1025.86
2023-05-19T04:53:01.164Z,1025.88
2023-05-19T04:54:01.050Z,1025.91
2023-05-19T04:55:01.439Z,1025.9
2023-05-19T04:56:01.059Z,1025.88
2023-05-19T04:57:01.076Z,1025.89
2023-05-19T04:58:01.068Z,1025.9
2023-05-19T04:59:01.058Z,1025.85
2023-05-19T05:00:01.725Z,1025.92
2023-05-19T05:01:01.096Z,1025.91
2023-05-19T05:02:01.127Z,1025.95
2023-05-19T05:03:01.386Z,1025.92
2023-05-19T05:04:02.245Z,1025.95
2023-05-19T05:05:02.093Z,1025.92
2023-05-19T05:06:01.122Z,1025.93
2023-05-19T05:07:03.890Z,1025.91
2023-05-19T05:08:01.766Z,1025.94
2023-05-19T05:09:00.619Z,1025.97
2023-05-19T05:10:00.220Z,1025.91
2023-05-19T05:10:59.810Z,1025.94
2023-05-19T05:12:01.843Z,1025.95
2023-05-19T05:13:01.796Z,1025.91
2023-05-19T05:14:04.122Z,1025.93
2023-05-19T05:15:02.093Z,1025.92
2023-05-19T05:16:01.148Z,1025.95
2023-05-19T05:17:01.068Z,1025.93
2023-05-19T05:18:01.169Z,1025.96
2023-05-19T05:19:06.356Z,1025.95
2023-05-19T05:20:01.097Z,1025.96
2023-05-19T05:21:01.104Z,1025.94
2023-05-19T05:22:01.126Z,1025.97
2023-05-19T05:23:01.019Z,1025.98
2023-05-19T05:24:09.014Z,1025.96
2023-05-19T05:25:01.122Z,1025.93
2023-05-19T05:26:01.030Z,1025.93
2023-05-19T05:27:01.034Z,1025.96
2023-05-19T05:28:01.188Z,1026
2023-05-19T05:29:10.290Z,1025.94
2023-05-19T05:30:01.359Z,1025.97
2023-05-19T05:31:01.053Z,1025.95
2023-05-19T05:32:01.139Z,1025.92
2023-05-19T05:33:01.488Z,1025.89
2023-05-19T05:34:14.572Z,1025.93
2023-05-19T05:35:01.118Z,1025.91
2023-05-19T05:36:02.200Z,1025.93
2023-05-19T05:37:01.417Z,1025.99
2023-05-19T05:38:01.854Z,1025.96
2023-05-19T05:39:01.670Z,1025.99
2023-05-19T05:40:00.548Z,1025.94
2023-05-19T05:41:00.188Z,1025.92
2023-05-19T05:41:59.783Z,1025.96
2023-05-19T05:43:01.469Z,1025.94
2023-05-19T05:44:01.398Z,1025.96
2023-05-19T05:45:02.816Z,1025.94
2023-05-19T05:46:01.543Z,1025.93
2023-05-19T05:47:01.056Z,1025.94
2023-05-19T05:48:01.232Z,1025.95
2023-05-19T05:49:00.693Z,1025.92
2023-05-19T05:50:00.481Z,1025.96
2023-05-19T05:51:00.731Z,1025.96
2023-05-19T05:53:01.651Z,1025.94
2023-05-19T05:54:01.108Z,1025.95
2023-05-19T05:55:01.042Z,1025.96
2023-05-19T05:56:01.128Z,1025.96
2023-05-19T05:57:01.122Z,1025.94
2023-05-19T05:58:01.337Z,1025.96
2023-05-19T05:59:01.221Z,1025.93
2023-05-19T06:00:02.241Z,1025.91
2023-05-19T06:01:01.078Z,1025.92
2023-05-19T06:02:01.102Z,1025.94
2023-05-19T06:03:01.876Z,1025.88
2023-05-19T06:04:01.756Z,1025.92
2023-05-19T06:05:01.358Z,1025.94
2023-05-19T06:06:02.579Z,1025.91
2023-05-19T06:07:01.455Z,1025.91
2023-05-19T06:08:01.567Z,1025.92
2023-05-19T06:09:01.300Z,1025.89
2023-05-19T06:10:01.122Z,1025.87
2023-05-19T06:11:01.543Z,1025.87
2023-05-19T06:12:01.159Z,1025.89
2023-05-19T06:13:01.245Z,1025.89
2023-05-19T06:14:01.032Z,1025.87
2023-05-19T06:15:01.046Z,1025.88
2023-05-19T06:16:02.281Z,1025.91
2023-05-19T06:17:01.484Z,1025.88
2023-05-19T06:18:02.181Z,1025.92
2023-05-19T06:19:01.672Z,1025.9
2023-05-19T06:20:01.064Z,1025.86
2023-05-19T06:21:01.078Z,1025.85
2023-05-19T06:22:01.162Z,1025.85
2023-05-19T06:23:01.087Z,1025.86
2023-05-19T06:24:03.035Z,1025.81
2023-05-19T06:25:02.032Z,1025.82
2023-05-19T06:26:02.433Z,1025.82
2023-05-19T06:27:01.801Z,1025.79
2023-05-19T06:28:01.141Z,1025.78
2023-05-19T06:29:00.810Z,1025.81
2023-05-19T06:30:00.931Z,1025.82
2023-05-19T06:31:01.208Z,1025.83
2023-05-19T06:32:01.292Z,1025.78
2023-05-19T06:33:01.239Z,1025.81
2023-05-19T06:34:01.068Z,1025.83
2023-05-19T06:35:01.176Z,1025.84
2023-05-19T06:36:01.094Z,1025.85
2023-05-19T06:37:01.070Z,1025.82
2023-05-19T06:38:01.086Z,1025.83
2023-05-19T06:39:02.709Z,1025.79
2023-05-19T06:40:01.304Z,1025.76
2023-05-19T06:41:01.116Z,1025.79
2023-05-19T06:42:01.114Z,1025.75
2023-05-19T06:43:01.134Z,1025.8
2023-05-19T06:44:01.314Z,1025.79
2023-05-19T06:45:01.035Z,1025.79
2023-05-19T06:46:01.127Z,1025.76
2023-05-19T06:47:01.668Z,1025.75
2023-05-19T06:48:01.508Z,1025.78
2023-05-19T06:49:01.167Z,1025.79
2023-05-19T06:50:01.924Z,1025.77
2023-05-19T06:51:01.249Z,1025.79
2023-05-19T06:52:01.062Z,1025.84
2023-05-19T06:53:01.068Z,1025.85
2023-05-19T06:54:01.202Z,1025.8
2023-05-19T06:55:04.844Z,1025.84
2023-05-19T06:56:02.083Z,1025.85
2023-05-19T06:57:00.789Z,1025.91
2023-05-19T06:58:00.493Z,1025.9
2023-05-19T06:59:00.239Z,1025.85
2023-05-19T07:00:06.324Z,1025.88
2023-05-19T07:01:01.452Z,1025.91
2023-05-19T07:02:01.107Z,1025.88
2023-05-19T07:03:01.132Z,1025.89
2023-05-19T07:04:01.193Z,1025.94
2023-05-19T07:05:09.611Z,1025.92
2023-05-19T07:06:01.087Z,1025.95
2023-05-19T07:07:01.121Z,1025.94
2023-05-19T07:08:01.118Z,1025.95
2023-05-19T07:09:00.821Z,1025.9
2023-05-19T07:10:11.479Z,1025.89
2023-05-19T07:11:02.185Z,1025.85
2023-05-19T07:12:01.930Z,1025.97
2023-05-19T07:13:01.391Z,1025.93
2023-05-19T07:14:01.116Z,1025.94
2023-05-19T07:15:14.181Z,1025.99
2023-05-19T07:16:01.168Z,1025.95
2023-05-19T07:17:01.768Z,1025.99
2023-05-19T07:18:01.322Z,1026
2023-05-19T07:19:02.201Z,1026
2023-05-19T07:20:02.061Z,1026.01
2023-05-19T07:21:01.958Z,1026.06
2023-05-19T07:22:01.136Z,1026.02
2023-05-19T07:23:01.550Z,1026
2023-05-19T07:24:01.093Z,1025.99
2023-05-19T07:25:01.129Z,1026.02
2023-05-19T07:26:01.361Z,1026
2023-05-19T07:27:02.241Z,1026.02
2023-05-19T07:28:00.990Z,1025.99
2023-05-19T07:29:00.808Z,1025.99
2023-05-19T07:30:00.864Z,1025.97
2023-05-19T07:31:01.525Z,1025.99
2023-05-19T07:32:01.266Z,1025.94
2023-05-19T07:33:01.162Z,1025.93
2023-05-19T07:34:01.095Z,1025.91
2023-05-19T07:35:01.036Z,1025.92
2023-05-19T07:36:01.131Z,1025.93
2023-05-19T07:37:01.049Z,1025.94
2023-05-19T07:38:01.163Z,1025.95
2023-05-19T07:39:01.287Z,1025.87
2023-05-19T07:40:01.495Z,1025.98
2023-05-19T07:41:01.861Z,1026
2023-05-19T07:42:01.203Z,1025.95
2023-05-19T07:43:01.032Z,1025.93
2023-05-19T07:44:01.010Z,1025.95
2023-05-19T07:45:02.430Z,1025.89
2023-05-19T07:46:02.396Z,1025.93
2023-05-19T07:47:01.120Z,1025.9
2023-05-19T07:48:01.179Z,1025.9
2023-05-19T07:49:01.135Z,1025.88
2023-05-19T07:50:01.740Z,1025.88
2023-05-19T07:51:01.048Z,1025.84
2023-05-19T07:52:01.509Z,1025.86
2023-05-19T07:53:01.051Z,1025.89
2023-05-19T07:54:01.071Z,1025.89
2023-05-19T07:55:01.066Z,1025.84
2023-05-19T07:56:01.630Z,1025.85
2023-05-19T07:57:01.458Z,1025.84
2023-05-19T07:58:01.025Z,1025.81
2023-05-19T07:59:01.136Z,1025.83
2023-05-19T08:00:01.100Z,1025.84
2023-05-19T08:01:01.093Z,1025.76
2023-05-19T08:02:01.123Z,1025.79
2023-05-19T08:03:01.175Z,1025.71
2023-05-19T08:04:01.233Z,1025.74
2023-05-19T08:05:01.947Z,1025.79
2023-05-19T08:06:01.261Z,1025.78
2023-05-19T08:07:02.261Z,1025.75
2023-05-19T08:08:01.297Z,1025.75
2023-05-19T08:09:01.153Z,1025.75
2023-05-19T08:10:00.760Z,1025.8
2023-05-19T08:11:00.340Z,1025.75
2023-05-19T08:11:59.936Z,1025.73
2023-05-19T08:12:59.535Z,1025.73
2023-05-19T08:14:01.112Z,1025.75
2023-05-19T08:15:01.753Z,1025.75
2023-05-19T08:16:01.345Z,1025.76
2023-05-19T08:17:02.228Z,1025.68
2023-05-19T08:18:01.267Z,1025.87
2023-05-19T08:19:01.233Z,1025.69
2023-05-19T08:20:05.790Z,1025.73
2023-05-19T08:21:05.013Z,1025.75
2023-05-19T08:22:01.751Z,1025.69
2023-05-19T08:23:01.063Z,1025.67
2023-05-19T08:24:01.050Z,1025.7
2023-05-19T08:25:01.266Z,1025.65
2023-05-19T08:26:01.093Z,1025.58
2023-05-19T08:27:01.089Z,1025.65
2023-05-19T08:28:01.482Z,1025.62
2023-05-19T08:29:01.225Z,1025.6
2023-05-19T08:30:01.835Z,1025.67
2023-05-19T08:31:01.329Z,1025.58
2023-05-19T08:32:01.257Z,1025.57
2023-05-19T08:33:01.166Z,1025.55
2023-05-19T08:34:01.327Z,1025.5
2023-05-19T08:35:01.026Z,1025.45
2023-05-19T08:36:01.143Z,1025.48
2023-05-19T08:37:01.183Z,1025.4
2023-05-19T08:38:01.419Z,1025.41
2023-05-19T08:39:01.162Z,1025.53
2023-05-19T08:40:01.045Z,1025.44
2023-05-19T08:41:01.235Z,1025.39
2023-05-19T08:42:01.615Z,1025.47
2023-05-19T08:43:01.989Z,1025.36
2023-05-19T08:44:01.787Z,1025.41
2023-05-19T08:45:01.097Z,1025.4
2023-05-19T08:46:00.777Z,1025.42
2023-05-19T08:47:00.389Z,1025.57
2023-05-19T08:48:00.147Z,1025.38
2023-05-19T08:48:59.877Z,1025.45
2023-05-19T08:50:00.730Z,1025.42
2023-05-19T08:51:04.829Z,1025.4
2023-05-19T08:52:01.118Z,1025.46
2023-05-19T08:53:05.928Z,1025.35
2023-05-19T08:54:00.742Z,1025.37
2023-05-19T08:55:00.359Z,1025.4
2023-05-19T08:56:05.675Z,1025.41
2023-05-19T08:57:05.415Z,1025.34
2023-05-19T08:58:01.054Z,1025.29
2023-05-19T08:59:01.066Z,1025.31
2023-05-19T09:00:01.078Z,1025.34
2023-05-19T09:01:10.025Z,1025.27
2023-05-19T09:02:01.790Z,1025.24
2023-05-19T09:03:17.657Z,1025.24
2023-05-19T09:04:01.546Z,1025.28
2023-05-19T09:05:01.187Z,1025.24
2023-05-19T09:06:11.465Z,1025.25
2023-05-19T09:07:02.347Z,1025.22
2023-05-19T09:08:02.155Z,1025.24
2023-05-19T09:09:01.040Z,1025.22
2023-05-19T09:10:00.711Z,1025.12
2023-05-19T09:11:14.855Z,1025.17
2023-05-19T09:12:01.213Z,1025.2
2023-05-19T09:13:01.470Z,1025.21
2023-05-19T09:14:01.076Z,1025.17
2023-05-19T09:15:01.034Z,1025.14
2023-05-19T09:16:01.085Z,1025.18
2023-05-19T09:17:01.158Z,1025.15
2023-05-19T09:18:01.182Z,1025.08
2023-05-19T09:19:01.432Z,1025.17
2023-05-19T09:20:01.489Z,1025.1
2023-05-19T09:21:01.118Z,1025.06
2023-05-19T09:22:01.116Z,1025.06
2023-05-19T09:23:01.131Z,1025.08
2023-05-19T09:24:01.163Z,1025.15
2023-05-19T09:25:01.842Z,1025.1
2023-05-19T09:26:01.051Z,1025.14
2023-05-19T09:27:01.443Z,1025.15
2023-05-19T09:28:01.187Z,1025.19
2023-05-19T09:29:01.069Z,1025.2
2023-05-19T09:30:00.643Z,1025.17
2023-05-19T09:31:00.357Z,1025.19
2023-05-19T09:32:00.001Z,1025.25
2023-05-19T09:33:00.130Z,1025.25
2023-05-19T09:34:00.055Z,1025.28
2023-05-19T09:34:59.767Z,1025.23
2023-05-19T09:36:01.348Z,1025.31
2023-05-19T09:37:01.151Z,1025.27
2023-05-19T09:38:01.103Z,1025.15
2023-05-19T09:39:01.124Z,1025.21
2023-05-19T09:40:01.142Z,1025.22
2023-05-19T09:41:00.815Z,1025.18
2023-05-19T09:42:00.423Z,1025.14
2023-05-19T09:43:00.001Z,1025.14
2023-05-19T09:43:59.605Z,1025.17
2023-05-19T09:45:02.263Z,1025.22
2023-05-19T09:46:01.187Z,1025.24
2023-05-19T09:47:01.130Z,1025.2
2023-05-19T09:48:01.132Z,1025.14
2023-05-19T09:49:01.092Z,1025.14
2023-05-19T09:50:00.790Z,1025.18
2023-05-19T09:51:00.381Z,1025.15
2023-05-19T09:52:00.201Z,1025.16
2023-05-19T09:52:59.855Z,1025.12
2023-05-19T09:54:02.159Z,1025.1
2023-05-19T09:55:01.485Z,1025.14
2023-05-19T09:56:01.182Z,1025.15
2023-05-19T09:57:01.030Z,1025.18
2023-05-19T09:58:01.440Z,1025.09
2023-05-19T09:59:01.072Z,1025.15
2023-05-19T10:00:01.079Z,1025.05
2023-05-19T10:01:01.194Z,1025.11
2023-05-19T10:02:01.202Z,1025.05
2023-05-19T10:03:01.113Z,1025.05
2023-05-19T10:04:01.592Z,1025.04
2023-05-19T10:05:01.151Z,1025.1
2023-05-19T10:06:01.091Z,1025.08
2023-05-19T10:07:01.193Z,1025.03
2023-05-19T10:08:01.102Z,1024.99
2023-05-19T10:09:01.095Z,1025.01
2023-05-19T10:10:00.849Z,1025.04
2023-05-19T10:11:01.319Z,1024.98
2023-05-19T10:12:02.094Z,1025.01
2023-05-19T10:13:01.135Z,1024.99
2023-05-19T10:14:02.532Z,1024.93
2023-05-19T10:15:01.414Z,1025
2023-05-19T10:16:01.377Z,1025.01
2023-05-19T10:17:01.156Z,1024.95
2023-05-19T10:18:01.154Z,1024.98
2023-05-19T10:19:01.192Z,1025.02
2023-05-19T10:20:01.460Z,1024.97
2023-05-19T10:21:01.181Z,1024.98
2023-05-19T10:22:01.017Z,1025.05
2023-05-19T10:23:01.095Z,1025.03
2023-05-19T10:24:01.150Z,1024.94
2023-05-19T10:25:02.034Z,1024.98
2023-05-19T10:26:01.540Z,1025
2023-05-19T10:27:01.134Z,1024.96
2023-05-19T10:28:01.448Z,1025
2023-05-19T10:29:01.579Z,1025.04
2023-05-19T10:30:02.490Z,1025.06
2023-05-19T10:31:01.829Z,1025.03
2023-05-19T10:32:03.473Z,1025.09
2023-05-19T10:33:01.225Z,1025.06
2023-05-19T10:34:01.918Z,1025.06
2023-05-19T10:35:01.978Z,1025.01
2023-05-19T10:36:01.076Z,1025.01
2023-05-19T10:37:05.501Z,1024.94
2023-05-19T10:38:01.419Z,1025
2023-05-19T10:39:01.430Z,1024.92
2023-05-19T10:40:01.783Z,1024.91
2023-05-19T10:41:01.698Z,1024.9
2023-05-19T10:42:07.980Z,1024.89
2023-05-19T10:43:01.436Z,1024.9
2023-05-19T10:44:01.064Z,1024.87
2023-05-19T10:45:01.048Z,1024.86
2023-05-19T10:46:01.050Z,1024.84
2023-05-19T10:47:11.150Z,1024.95
2023-05-19T10:48:01.119Z,1024.94
2023-05-19T10:49:01.065Z,1024.93
2023-05-19T10:50:00.743Z,1024.92
2023-05-19T10:51:01.078Z,1024.91
2023-05-19T10:52:12.868Z,1024.87
2023-05-19T10:53:01.037Z,1024.87
2023-05-19T10:54:01.091Z,1024.83
2023-05-19T10:55:01.130Z,1024.86
2023-05-19T10:56:01.118Z,1024.88
2023-05-19T10:57:14.954Z,1024.86
2023-05-19T10:58:01.139Z,1024.86
2023-05-19T10:59:01.526Z,1024.87
2023-05-19T11:00:01.159Z,1024.92
2023-05-19T11:01:02.386Z,1024.87
2023-05-19T11:02:01.189Z,1024.91
2023-05-19T11:03:01.106Z,1024.87
2023-05-19T11:04:01.802Z,1024.85
2023-05-19T11:05:01.071Z,1024.87
2023-05-19T11:06:01.078Z,1024.82
2023-05-19T11:07:01.077Z,1024.8
2023-05-19T11:08:01.472Z,1024.75
2023-05-19T11:09:01.112Z,1024.75
2023-05-19T11:10:02.197Z,1024.77
2023-05-19T11:11:01.618Z,1024.73
2023-05-19T11:12:01.143Z,1024.74
2023-05-19T11:13:00.921Z,1024.86
2023-05-19T11:14:01.123Z,1024.78
2023-05-19T11:15:01.192Z,1024.8
2023-05-19T11:16:01.513Z,1024.84
2023-05-19T11:17:02.118Z,1024.82
2023-05-19T11:18:01.212Z,1024.86
2023-05-19T11:19:01.957Z,1024.85
2023-05-19T11:20:02.052Z,1024.93
2023-05-19T11:21:01.165Z,1024.89
2023-05-19T11:22:01.086Z,1024.89
2023-05-19T11:23:01.126Z,1024.9
2023-05-19T11:24:01.172Z,1024.86
2023-05-19T11:25:02.053Z,1024.86
2023-05-19T11:26:01.106Z,1024.94
2023-05-19T11:27:01.136Z,1024.86
2023-05-19T11:28:01.101Z,1024.91
2023-05-19T11:29:01.376Z,1024.82
2023-05-19T11:30:02.334Z,1024.85
2023-05-19T11:31:02.363Z,1024.82
2023-05-19T11:32:01.113Z,1024.86
2023-05-19T11:33:01.490Z,1024.82
2023-05-19T11:34:01.969Z,1024.84
2023-05-19T11:35:01.129Z,1024.82
2023-05-19T11:36:01.073Z,1024.79
2023-05-19T11:37:01.078Z,1024.74
2023-05-19T11:38:01.100Z,1024.81
2023-05-19T11:39:01.802Z,1024.83
2023-05-19T11:40:01.124Z,1024.9
2023-05-19T11:41:01.098Z,1024.9
2023-05-19T11:42:01.128Z,1024.9
2023-05-19T11:43:01.246Z,1024.94
2023-05-19T11:44:01.116Z,1024.89
2023-05-19T11:45:01.135Z,1024.88
2023-05-19T11:46:01.344Z,1024.9
2023-05-19T11:47:02.581Z,1024.84
2023-05-19T11:48:03.403Z,1024.84
2023-05-19T11:49:01.174Z,1024.88
2023-05-19T11:50:01.070Z,1024.93
2023-05-19T11:51:01.225Z,1024.87
2023-05-19T11:52:01.101Z,1024.94
2023-05-19T11:53:01.176Z,1024.95
2023-05-19T11:54:01.153Z,1024.94
2023-05-19T11:55:01.085Z,1024.89
2023-05-19T11:56:01.087Z,1024.91
2023-05-19T11:57:02.381Z,1024.94
2023-05-19T11:58:05.099Z,1024.88
2023-05-19T11:59:02.033Z,1024.9
2023-05-19T12:00:01.122Z,1024.84
2023-05-19T12:01:01.244Z,1024.83
2023-05-19T12:02:01.181Z,1024.84
2023-05-19T12:03:00.577Z,1024.75
2023-05-19T12:04:00.277Z,1024.77
2023-05-19T12:05:00.460Z,1024.78
2023-05-19T12:06:00.338Z,1024.72
2023-05-19T12:07:00.076Z,1024.66
2023-05-19T12:07:59.684Z,1024.69
2023-05-19T12:09:02.376Z,1024.66